Time;durP1;ratioP1;P1;durP2;ratioP2;P2;SDS_P1;SDS_P2;PMS_P1;PMS_P2;Temp;Humidity;BMP_temperature;BMP_pressure;BME280_temperature;BME280_humidity;BME280_pressure;Samples;Min_cycle;Max_cycle;Signal;HPM_P1;HPM_P2
2022/03/11 00:00:44;;;;;;;12.48;6.68;;;6.90;78.00;;;;;;5055903;28;20079;-47
2022/03/11 00:03:11;;;;;;;18.38;7.57;;;6.90;78.40;;;;;;5055790;28;20025;-47
2022/03/11 00:05:37;;;;;;;16.80;6.80;;;6.80;78.90;;;;;;5055760;28;20025;-47
2022/03/11 00:08:03;;;;;;;14.10;6.53;;;6.80;79.10;;;;;;5055732;28;20025;-47
2022/03/11 00:10:29;;;;;;;18.08;7.45;;;6.80;79.30;;;;;;5056205;28;20027;-47
2022/03/11 00:12:55;;;;;;;14.73;6.38;;;6.70;79.70;;;;;;5054327;28;20491;-47
2022/03/11 00:15:21;;;;;;;15.73;7.03;;;6.70;80.00;;;;;;5054576;28;20104;-47
2022/03/11 00:17:47;;;;;;;14.18;6.55;;;6.70;80.10;;;;;;5055756;28;20096;-47
2022/03/11 00:20:19;;;;;;;13.95;6.68;;;6.70;80.30;;;;;;5055199;28;20033;-47
2022/03/11 00:22:45;;;;;;;;;;;6.60;80.40;;;;;;5055832;28;20036;-47
2022/03/11 00:25:10;;;;;;;16.27;6.80;;;6.60;80.60;;;;;;5055620;28;19912;-48
2022/03/11 00:27:36;;;;;;;21.23;7.35;;;6.60;80.80;;;;;;5054102;28;20017;-49
2022/03/11 00:30:03;;;;;;;16.98;7.43;;;6.60;80.90;;;;;;5054996;28;20025;-52
2022/03/11 00:32:28;;;;;;;18.05;7.43;;;6.50;81.30;;;;;;5054056;28;20158;-51
2022/03/11 00:34:54;;;;;;;17.60;7.80;;;6.50;81.40;;;;;;5055159;28;20099;-50
2022/03/11 00:37:19;;;;;;;18.75;6.78;;;6.50;81.60;;;;;;5054684;28;20029;-48
2022/03/11 00:39:45;;;;;;;16.02;7.18;;;6.50;81.70;;;;;;5053910;28;20025;-47
2022/03/11 00:42:11;;;;;;;14.32;7.00;;;6.50;82.00;;;;;;5053782;28;20033;-51
2022/03/11 00:44:38;;;;;;;16.75;7.82;;;6.40;82.30;;;;;;5053742;28;20017;-50
2022/03/11 00:47:03;;;;;;;21.23;7.40;;;6.30;82.60;;;;;;5054956;28;20017;-47
2022/03/11 00:49:29;;;;;;;19.08;7.78;;;6.40;82.70;;;;;;5054944;28;20017;-48
2022/03/11 00:51:55;;;;;;;21.35;8.05;;;6.30;83.00;;;;;;5053586;28;20039;-50
2022/03/11 00:54:20;;;;;;;17.35;7.85;;;6.30;83.20;;;;;;5054117;28;20028;-48
2022/03/11 00:56:46;;;;;;;16.23;7.65;;;6.20;83.60;;;;;;5053424;28;20025;-47
2022/03/11 00:59:11;;;;;;;17.40;7.72;;;6.20;83.90;;;;;;5054809;28;20108;-47
2022/03/11 01:01:37;;;;;;;20.42;7.93;;;6.10;84.20;;;;;;5053950;28;20056;-49
2022/03/11 01:04:03;;;;;;;15.20;7.45;;;6.10;84.50;;;;;;5054614;28;20021;-47
2022/03/11 01:06:28;;;;;;;20.00;7.88;;;6.00;84.80;;;;;;5053642;28;20100;-47
2022/03/11 01:08:54;;;;;;;22.55;7.72;;;6.10;85.10;;;;;;5054862;28;20037;-48
2022/03/11 01:11:19;;;;;;;16.90;7.97;;;6.00;85.50;;;;;;5053178;28;20021;-46
2022/03/11 01:13:45;;;;;;;16.60;7.78;;;6.00;85.90;;;;;;5054460;28;20032;-47
2022/03/11 01:16:11;;;;;;;19.65;8.02;;;5.90;86.20;;;;;;5054393;28;20060;-47
2022/03/11 01:18:36;;;;;;;20.13;8.10;;;5.90;86.60;;;;;;5053096;28;20498;-47
2022/03/11 01:21:02;;;;;;;18.20;7.45;;;5.90;87.00;;;;;;5053063;28;20116;-47
2022/03/11 01:23:28;;;;;;;20.75;8.15;;;5.80;87.40;;;;;;5053786;28;20087;-46
2022/03/11 01:25:53;;;;;;;21.95;9.48;;;5.90;87.80;;;;;;5054516;28;20025;-47
2022/03/11 01:28:19;;;;;;;20.00;8.18;;;5.90;88.20;;;;;;5054150;28;20017;-47
2022/03/11 01:30:45;;;;;;;18.67;8.98;;;5.80;88.60;;;;;;5053038;28;20111;-47
2022/03/11 01:33:10;;;;;;;17.02;7.97;;;5.80;89.10;;;;;;5052801;28;20017;-47
2022/03/11 01:35:36;;;;;;;20.63;8.45;;;5.80;89.80;;;;;;5052830;28;20032;-47
2022/03/11 01:38:01;;;;;;;17.80;8.77;;;5.70;90.10;;;;;;5054057;28;20040;-47
2022/03/11 01:40:27;;;;;;;17.05;8.00;;;5.70;90.30;;;;;;5052675;28;20119;-47
2022/03/11 01:42:53;;;;;;;23.08;8.77;;;5.60;90.60;;;;;;5053394;28;20029;-47
2022/03/11 01:45:18;;;;;;;21.20;9.30;;;5.60;90.90;;;;;;5052973;28;20074;-47
2022/03/11 01:47:44;;;;;;;21.33;8.20;;;5.60;91.30;;;;;;5053801;28;20096;-49
2022/03/11 01:50:10;;;;;;;19.20;8.73;;;5.50;91.70;;;;;;5052890;28;20021;-47
2022/03/11 01:52:37;;;;;;;18.15;8.93;;;5.40;92.10;;;;;;5052523;28;20020;-47
2022/03/11 01:55:04;;;;;;;22.30;8.70;;;5.40;92.40;;;;;;5052799;28;20119;-47
2022/03/11 01:57:36;;;;;;;18.10;8.85;;;5.40;92.70;;;;;;5052411;28;20114;-47
2022/03/11 02:00:04;;;;;;;21.70;8.82;;;5.40;93.20;;;;;;5052483;28;20025;-47
2022/03/11 02:02:30;;;;;;;20.45;8.93;;;5.40;93.40;;;;;;5052195;28;20033;-47
2022/03/11 02:04:55;;;;;;;18.77;8.63;;;5.40;93.90;;;;;;5053584;28;20021;-47
2022/03/11 02:07:21;;;;;;;22.85;10.00;;;5.30;94.20;;;;;;5052035;28;20021;-49
2022/03/11 02:09:47;;;;;;;22.60;8.93;;;5.30;94.60;;;;;;5053488;28;20088;-50
2022/03/11 02:12:35;;;;;;;22.73;9.07;;;5.20;95.10;;;;;;5052133;28;20059;-47
2022/03/11 02:15:06;;;;;;;22.45;10.13;;;5.20;95.50;;;;;;5052083;28;20112;-47
2022/03/11 02:17:32;;;;;;;25.40;9.73;;;5.20;95.80;;;;;;5052285;28;20029;-51
2022/03/11 02:19:58;;;;;;;21.92;10.15;;;5.10;96.10;;;;;;5053397;28;20442;-48
2022/03/11 02:22:25;;;;;;;23.65;9.85;;;5.10;96.40;;;;;;5053150;28;20067;-48
2022/03/11 02:24:52;;;;;;;20.58;9.75;;;5.10;96.90;;;;;;5053262;28;20017;-50
2022/03/11 02:27:17;;;;;;;23.75;11.63;;;5.00;97.20;;;;;;5053192;28;20021;-49
2022/03/11 02:29:43;;;;;;;25.65;9.98;;;5.10;97.50;;;;;;5053601;28;20042;-50
2022/03/11 02:32:09;;;;;;;23.77;10.18;;;5.00;97.90;;;;;;5053503;28;20029;-47
2022/03/11 02:34:56;;;;;;;24.15;9.65;;;5.00;98.30;;;;;;5053144;28;20025;-49
2022/03/11 02:37:21;;;;;;;21.20;9.88;;;4.90;99.00;;;;;;5051908;28;20048;-47
2022/03/11 02:39:47;;;;;;;25.50;9.70;;;4.90;99.50;;;;;;5052748;28;20499;-48
2022/03/11 02:42:13;;;;;;;24.88;10.20;;;4.90;99.80;;;;;;5051719;28;20037;-50
2022/03/11 02:44:39;;;;;;;22.15;9.52;;;4.80;99.90;;;;;;5053116;28;20021;-54
2022/03/11 02:47:05;;;;;;;22.98;10.00;;;4.70;99.90;;;;;;5053074;28;20017;-47
2022/03/11 02:49:30;;;;;;;23.02;10.45;;;4.70;99.90;;;;;;5052162;28;20028;-46
2022/03/11 02:51:56;;;;;;;22.80;10.93;;;4.60;99.90;;;;;;5051821;28;20025;-47
2022/03/11 02:54:24;;;;;;;24.08;10.93;;;4.60;99.90;;;;;;5051908;28;20036;-50
2022/03/11 02:56:49;;;;;;;26.85;10.80;;;4.60;99.90;;;;;;5051780;28;20087;-49
2022/03/11 02:59:15;;;;;;;27.33;10.40;;;4.60;99.90;;;;;;5053250;28;20079;-47
2022/03/11 03:01:40;;;;;;;28.52;12.27;;;4.60;99.90;;;;;;5051880;28;20036;-51
2022/03/11 03:04:06;;;;;;;23.40;10.48;;;4.50;99.90;;;;;;5052834;28;20071;-47
2022/03/11 03:06:32;;;;;;;24.25;11.18;;;4.50;99.90;;;;;;5051985;28;20021;-49
2022/03/11 03:08:57;;;;;;;24.63;9.90;;;4.50;99.90;;;;;;5051607;28;20017;-54
2022/03/11 03:11:23;;;;;;;24.27;10.27;;;4.40;99.90;;;;;;5051593;28;20021;-47
2022/03/11 03:13:49;;;;;;;26.60;11.50;;;4.40;99.90;;;;;;5051701;28;20029;-47
2022/03/11 03:16:14;;;;;;;25.45;11.18;;;4.40;99.90;;;;;;5052106;28;20036;-47
2022/03/11 03:18:40;;;;;;;25.58;12.00;;;4.40;99.90;;;;;;5052902;28;20036;-47
2022/03/11 03:21:05;;;;;;;28.70;11.93;;;4.40;99.90;;;;;;5055816;28;20028;-49
2022/03/11 03:23:31;;;;;;;29.05;11.57;;;4.40;99.90;;;;;;5057293;28;20067;-47
2022/03/11 03:25:57;;;;;;;24.75;11.95;;;4.40;99.90;;;;;;5055195;28;20500;-46
2022/03/11 03:28:22;;;;;;;31.23;12.10;;;4.40;99.90;;;;;;5055305;28;20072;-46
2022/03/11 03:30:48;;;;;;;31.13;11.90;;;4.40;99.90;;;;;;5055574;28;20017;-47
2022/03/11 03:33:14;;;;;;;30.83;11.20;;;4.30;99.90;;;;;;5055175;28;20107;-48
2022/03/11 03:35:39;;;;;;;28.75;11.85;;;4.30;99.90;;;;;;5056345;28;20017;-45
2022/03/11 03:38:05;;;;;;;26.80;12.35;;;4.20;99.90;;;;;;5055417;28;20021;-47
2022/03/11 03:40:31;;;;;;;29.27;11.32;;;4.20;99.90;;;;;;5055306;28;20021;-47
2022/03/11 03:42:56;;;;;;;27.25;11.65;;;4.20;99.90;;;;;;5056424;28;20032;-46
2022/03/11 03:45:22;;;;;;;28.02;13.02;;;4.20;99.90;;;;;;5056162;28;20025;-46
2022/03/11 03:47:48;;;;;;;29.08;12.18;;;4.20;99.90;;;;;;5056143;28;20383;-47
2022/03/11 03:50:14;;;;;;;30.17;11.70;;;4.20;99.90;;;;;;5056066;28;20107;-47
2022/03/11 03:52:40;;;;;;;28.67;11.98;;;4.20;99.90;;;;;;5056005;28;20017;-46
2022/03/11 03:55:07;;;;;;;26.35;12.32;;;4.20;99.90;;;;;;5054739;28;20025;-48
2022/03/11 03:57:32;;;;;;;29.75;12.60;;;4.10;99.90;;;;;;5055611;28;20032;-47
2022/03/11 03:59:58;;;;;;;27.73;11.75;;;4.20;99.90;;;;;;5054740;28;20099;-48
2022/03/11 04:02:23;;;;;;;33.83;13.15;;;4.20;99.90;;;;;;5054507;28;20092;-48
2022/03/11 04:04:49;;;;;;;31.77;12.68;;;4.20;99.90;;;;;;5056020;28;20017;-47
2022/03/11 04:07:15;;;;;;;27.05;11.98;;;4.20;99.90;;;;;;5055643;28;20104;-47
2022/03/11 04:09:41;;;;;;;35.92;13.43;;;4.10;99.90;;;;;;5055694;28;20024;-46
2022/03/11 04:12:09;;;;;;;34.80;14.27;;;4.20;99.90;;;;;;5054643;28;20025;-47
2022/03/11 04:14:35;;;;;;;28.02;13.07;;;4.10;99.90;;;;;;5055742;28;20032;-48
2022/03/11 04:17:00;;;;;;;29.80;12.32;;;4.00;99.90;;;;;;5054251;28;20025;-48
2022/03/11 04:19:26;;;;;;;28.38;12.25;;;4.00;99.90;;;;;;5054303;28;20029;-47
2022/03/11 04:21:51;;;;;;;40.20;13.05;;;4.00;99.90;;;;;;5055275;28;20072;-47
2022/03/11 04:24:18;;;;;;;29.17;12.18;;;4.00;99.90;;;;;;5056002;28;20021;-49
2022/03/11 04:26:45;;;;;;;31.67;12.60;;;4.00;99.90;;;;;;5055204;28;20021;-47
2022/03/11 04:29:14;;;;;;;31.02;13.93;;;4.00;99.90;;;;;;5054111;28;20025;-50
2022/03/11 04:31:40;;;;;;;31.00;13.75;;;4.00;99.90;;;;;;5054925;28;20104;-48
2022/03/11 04:34:06;;;;;;;28.77;13.13;;;4.00;99.90;;;;;;5054105;28;20033;-47
2022/03/11 04:36:41;;;;;;;32.22;13.75;;;4.00;99.90;;;;;;5053974;28;20021;-47
2022/03/11 04:39:07;;;;;;;31.77;14.18;;;3.90;99.90;;;;;;5055267;28;20056;-47
2022/03/11 04:41:34;;;;;;;34.35;13.48;;;3.90;99.90;;;;;;5053797;28;20025;-48
2022/03/11 04:44:00;;;;;;;32.78;12.30;;;3.80;99.90;;;;;;5053806;28;20032;-47
2022/03/11 04:46:26;;;;;;;34.40;13.32;;;3.80;99.90;;;;;;5053779;28;20029;-49
2022/03/11 04:48:51;;;;;;;28.33;12.25;;;3.80;99.90;;;;;;5055037;28;20017;-49
2022/03/11 04:51:18;;;;;;;37.13;12.68;;;3.80;99.90;;;;;;5053723;28;20021;-48
2022/03/11 04:53:43;;;;;;;31.40;12.32;;;3.70;99.90;;;;;;5054941;28;20056;-53
2022/03/11 04:56:09;;;;;;;37.08;13.73;;;3.70;99.90;;;;;;5053523;28;20028;-49
2022/03/11 04:58:34;;;;;;;33.13;12.80;;;3.70;99.90;;;;;;5053490;28;20029;-53
2022/03/11 05:01:00;;;;;;;28.58;12.38;;;3.60;99.90;;;;;;5053341;28;20033;-52
2022/03/11 05:03:26;;;;;;;33.85;12.68;;;3.50;99.90;;;;;;5054870;28;20017;-54
2022/03/11 05:05:52;;;;;;;30.08;11.63;;;3.60;99.90;;;;;;5054810;28;20025;-53
2022/03/11 05:08:17;;;;;;;39.15;14.48;;;3.50;99.90;;;;;;5054984;28;20097;-50
2022/03/11 05:10:43;;;;;;;38.30;13.68;;;3.50;99.90;;;;;;5053878;28;20021;-49
2022/03/11 05:13:08;;;;;;;38.25;13.82;;;3.40;99.90;;;;;;5053270;28;20483;-50
2022/03/11 05:15:37;;;;;;;34.53;13.90;;;3.30;99.90;;;;;;5054726;28;20060;-48
2022/03/11 05:18:04;;;;;;;35.10;13.90;;;3.30;99.90;;;;;;5053513;28;20029;-49
2022/03/11 05:20:30;;;;;;;34.08;14.23;;;3.10;99.90;;;;;;5054759;28;20379;-49
2022/03/11 05:22:56;;;;;;;31.95;13.40;;;3.10;99.90;;;;;;5054261;28;20037;-52
2022/03/11 05:25:21;;;;;;;32.70;12.88;;;3.10;99.90;;;;;;5054528;28;20031;-47
2022/03/11 05:27:47;;;;;;;28.27;13.27;;;3.10;99.90;;;;;;5054610;28;20071;-49
2022/03/11 05:30:13;;;;;;;29.30;13.13;;;3.00;99.90;;;;;;5053131;28;20116;-49
2022/03/11 05:32:40;;;;;;;27.00;12.63;;;2.90;99.90;;;;;;5053227;28;20021;-47
2022/03/11 05:35:07;;;;;;;30.33;12.32;;;2.90;99.90;;;;;;5052854;28;20036;-52
2022/03/11 05:37:32;;;;;;;34.78;13.43;;;2.90;99.90;;;;;;5053124;28;20033;-51
2022/03/11 05:39:58;;;;;;;30.83;12.98;;;2.80;99.90;;;;;;5052871;28;20029;-48
2022/03/11 05:42:23;;;;;;;27.85;12.68;;;2.70;99.90;;;;;;5052887;28;20035;-53
2022/03/11 05:44:49;;;;;;;32.72;12.68;;;2.70;99.90;;;;;;5054285;28;20025;-51
2022/03/11 05:47:15;;;;;;;35.00;12.68;;;2.70;99.90;;;;;;5052974;28;20485;-47
2022/03/11 05:49:40;;;;;;;32.25;13.38;;;2.60;99.90;;;;;;5054159;28;20028;-48
2022/03/11 05:52:06;;;;;;;33.67;13.02;;;2.60;99.90;;;;;;5052599;28;20025;-48
2022/03/11 05:54:32;;;;;;;31.95;12.52;;;2.50;99.90;;;;;;5054022;28;20052;-47
2022/03/11 05:56:59;;;;;;;33.92;13.05;;;2.50;99.90;;;;;;5052406;28;20025;-47
2022/03/11 05:59:25;;;;;;;30.88;13.18;;;2.50;99.90;;;;;;5053602;28;20017;-47
2022/03/11 06:01:51;;;;;;;32.88;12.65;;;2.40;99.90;;;;;;5052772;28;20029;-47
2022/03/11 06:04:17;;;;;;;33.78;13.70;;;2.40;99.90;;;;;;5052381;28;20035;-50
2022/03/11 06:06:42;;;;;;;38.38;14.55;;;2.40;99.90;;;;;;5053457;28;20402;-48
2022/03/11 06:09:08;;;;;;;35.88;13.90;;;2.50;99.90;;;;;;5052937;28;20021;-47
2022/03/11 06:11:35;;;;;;;36.35;13.23;;;2.50;99.90;;;;;;5052305;28;20100;-47
2022/03/11 06:14:01;;;;;;;39.20;13.73;;;2.60;99.90;;;;;;5052213;28;20025;-48
2022/03/11 06:16:26;;;;;;;33.45;13.35;;;2.80;99.90;;;;;;5052664;28;20025;-52
2022/03/11 06:18:52;;;;;;;37.47;15.20;;;3.10;99.90;;;;;;5052469;28;20115;-47
2022/03/11 06:21:18;;;;;;;38.42;14.45;;;3.40;99.90;;;;;;5052450;28;20083;-46
2022/03/11 06:23:44;;;;;;;35.30;13.75;;;4.00;99.90;;;;;;5052008;28;20033;-48
2022/03/11 06:26:09;;;;;;;31.55;13.35;;;4.40;99.90;;;;;;5051938;28;20017;-47
2022/03/11 06:28:35;;;;;;;29.77;13.25;;;4.70;99.90;;;;;;5052057;28;20108;-49
2022/03/11 06:31:00;;;;;;;31.77;14.75;;;5.10;99.90;;;;;;5051933;28;20029;-47
2022/03/11 06:33:26;;;;;;;32.08;14.68;;;5.50;99.90;;;;;;5052065;28;20025;-47
2022/03/11 06:35:52;;;;;;;29.58;13.52;;;6.10;99.90;;;;;;5051959;28;20115;-47
2022/03/11 06:38:18;;;;;;;35.63;16.70;;;6.70;99.90;;;;;;5052013;28;20018;-47
2022/03/11 06:40:44;;;;;;;31.15;16.08;;;7.10;99.90;;;;;;5052055;28;20099;-47
2022/03/11 06:43:11;;;;;;;34.83;15.23;;;7.70;99.90;;;;;;5053244;28;20022;-49
2022/03/11 06:45:36;;;;;;;31.95;15.45;;;8.30;99.90;;;;;;5052707;28;20028;-47
2022/03/11 06:48:02;;;;;;;31.98;13.57;;;8.50;99.50;;;;;;5053522;28;20018;-47
2022/03/11 06:50:28;;;;;;;29.70;14.55;;;8.60;98.00;;;;;;5053143;28;20095;-48
2022/03/11 06:52:54;;;;;;;31.60;15.05;;;8.70;98.40;;;;;;5053106;28;20063;-49
2022/03/11 06:55:20;;;;;;;35.15;14.48;;;9.00;97.00;;;;;;5056389;28;20025;-47
2022/03/11 06:57:45;;;;;;;28.13;13.43;;;9.20;95.60;;;;;;5055934;28;20040;-47
2022/03/11 07:00:13;;;;;;;32.97;13.57;;;9.80;94.40;;;;;;5058118;28;20029;-47
2022/03/11 07:02:39;;;;;;;26.55;13.32;;;10.50;94.50;;;;;;5057033;28;20053;-47
2022/03/11 07:05:05;;;;;;;27.70;13.77;;;11.00;91.80;;;;;;5055659;28;20027;-46
2022/03/11 07:07:33;;;;;;;30.15;14.13;;;11.20;91.60;;;;;;5057004;28;20013;-49
2022/03/11 07:09:59;;;;;;;29.10;13.90;;;11.40;90.70;;;;;;5055973;28;20112;-46
2022/03/11 07:12:25;;;;;;;25.05;13.90;;;12.20;88.10;;;;;;5055894;28;20051;-47
2022/03/11 07:14:51;;;;;;;24.60;13.30;;;13.00;82.00;;;;;;5056835;28;20514;-47
2022/03/11 07:17:16;;;;;;;22.10;12.57;;;13.30;81.90;;;;;;5056259;28;20064;-46
2022/03/11 07:19:42;;;;;;;28.17;13.65;;;13.30;76.30;;;;;;5056795;28;20032;-46
2022/03/11 07:22:07;;;;;;;24.75;12.85;;;13.70;75.10;;;;;;5056567;28;20089;-47
2022/03/11 07:24:33;;;;;;;18.65;11.38;;;13.10;73.70;;;;;;5057261;28;20025;-46
2022/03/11 07:26:59;;;;;;;20.95;11.68;;;12.90;71.40;;;;;;5056489;28;20017;-47
2022/03/11 07:29:25;;;;;;;22.38;12.00;;;12.40;71.30;;;;;;5055272;28;20017;-46
2022/03/11 07:31:50;;;;;;;19.65;11.38;;;12.60;70.80;;;;;;5055507;28;20031;-48
2022/03/11 07:34:16;;;;;;;24.65;11.05;;;12.60;70.70;;;;;;5055553;28;20029;-46
2022/03/11 07:36:43;;;;;;;23.95;11.77;;;12.30;69.10;;;;;;5056677;28;20105;-46
2022/03/11 07:39:10;;;;;;;21.30;11.30;;;12.50;70.70;;;;;;5056543;28;20063;-46
2022/03/11 07:41:36;;;;;;;19.80;11.13;;;13.20;69.00;;;;;;5056277;28;20048;-46
2022/03/11 07:44:03;;;;;;;20.90;11.32;;;13.20;67.40;;;;;;5055414;28;20017;-47
2022/03/11 07:46:30;;;;;;;19.42;11.05;;;13.20;66.90;;;;;;5056201;28;20032;-46
2022/03/11 07:48:56;;;;;;;21.08;11.63;;;13.50;66.90;;;;;;5054999;28;20017;-46
2022/03/11 07:51:21;;;;;;;21.60;11.85;;;13.50;64.60;;;;;;5055134;28;20052;-46
2022/03/11 07:53:47;;;;;;;22.23;12.00;;;13.10;64.90;;;;;;5056206;28;20021;-46
2022/03/11 07:56:14;;;;;;;19.58;11.32;;;12.90;64.30;;;;;;5055294;28;20025;-50
2022/03/11 07:58:41;;;;;;;21.73;10.77;;;12.60;65.30;;;;;;5055057;28;20020;-46
2022/03/11 08:01:09;;;;;;;20.30;9.50;;;12.10;65.70;;;;;;5055756;28;20021;-49
2022/03/11 08:03:35;;;;;;;18.10;10.63;;;12.20;66.50;;;;;;5054561;28;20133;-50
2022/03/11 08:06:01;;;;;;;20.50;9.80;;;12.70;65.70;;;;;;5054922;28;20167;-49
2022/03/11 08:08:27;;;;;;;21.33;9.98;;;13.10;66.60;;;;;;5055766;28;20032;-49
2022/03/11 08:10:54;;;;;;;17.73;9.95;;;14.00;62.90;;;;;;5056024;28;20025;-47
2022/03/11 08:13:20;;;;;;;17.38;10.15;;;13.90;61.90;;;;;;5054873;28;20028;-48
2022/03/11 08:15:46;;;;;;;18.48;9.68;;;14.50;62.10;;;;;;5054353;28;20483;-46
2022/03/11 08:18:12;;;;;;;18.40;10.30;;;14.20;59.20;;;;;;5055535;28;20028;-50
2022/03/11 08:20:38;;;;;;;18.08;9.90;;;13.40;60.20;;;;;;5054645;28;20035;-47
2022/03/11 08:23:03;;;;;;;17.77;9.52;;;13.40;61.30;;;;;;5054249;28;20047;-49
2022/03/11 08:25:30;;;;;;;16.98;8.85;;;12.90;60.60;;;;;;5055408;28;20025;-46
2022/03/11 08:27:57;;;;;;;20.48;9.25;;;13.10;60.50;;;;;;5054546;28;20021;-47
2022/03/11 08:30:25;;;;;;;14.60;8.57;;;12.80;60.00;;;;;;5054180;28;20108;-50
2022/03/11 08:32:51;;;;;;;17.23;8.82;;;12.40;61.10;;;;;;5055311;28;20017;-49
2022/03/11 08:35:17;;;;;;;19.25;8.82;;;13.10;60.50;;;;;;5055583;28;20468;-50
2022/03/11 08:37:43;;;;;;;17.17;8.93;;;13.20;59.50;;;;;;5055244;28;20040;-47
2022/03/11 08:40:10;;;;;;;16.92;8.40;;;13.00;60.00;;;;;;5054801;28;20025;-48
2022/03/11 08:42:37;;;;;;;15.93;8.55;;;12.80;60.70;;;;;;5055126;28;20032;-54
2022/03/11 08:45:08;;;;;;;18.88;9.00;;;12.70;60.00;;;;;;5054442;28;20059;-49
2022/03/11 08:47:34;;;;;;;16.38;8.80;;;12.90;59.20;;;;;;5055149;28;20028;-54
2022/03/11 08:49:59;;;;;;;15.13;8.07;;;12.40;59.70;;;;;;5055214;28;20029;-50
2022/03/11 08:52:25;;;;;;;13.05;8.10;;;13.00;61.50;;;;;;5055089;28;20032;-48
2022/03/11 08:54:52;;;;;;;15.57;7.95;;;14.40;59.50;;;;;;5054454;28;20056;-46
2022/03/11 08:57:18;;;;;;;17.70;8.27;;;14.40;57.50;;;;;;5054887;28;20036;-49
2022/03/11 08:59:44;;;;;;;14.18;8.75;;;15.20;57.50;;;;;;5053675;28;20040;-50
2022/03/11 09:02:10;;;;;;;18.80;8.65;;;15.40;55.50;;;;;;5053531;28;20024;-48
2022/03/11 09:04:36;;;;;;;15.68;8.60;;;15.20;56.90;;;;;;5053551;28;20025;-47
2022/03/11 09:07:03;;;;;;;16.20;8.07;;;14.90;55.70;;;;;;5054665;28;20076;-47
2022/03/11 09:09:30;;;;;;;14.88;8.07;;;13.60;56.70;;;;;;5054667;28;20029;-47
2022/03/11 09:11:56;;;;;;;15.20;8.88;;;13.40;59.20;;;;;;5054564;28;20048;-49
2022/03/11 09:14:21;;;;;;;15.23;7.72;;;12.80;57.50;;;;;;5053303;28;20052;-49
2022/03/11 09:16:47;;;;;;;14.32;7.68;;;13.40;58.70;;;;;;5054435;28;20107;-49
2022/03/11 09:19:13;;;;;;;14.10;7.32;;;14.30;57.00;;;;;;5053319;28;20123;-51
2022/03/11 09:21:39;;;;;;;14.93;7.82;;;15.50;58.10;;;;;;5053373;28;20025;-48
2022/03/11 09:24:05;;;;;;;14.63;7.65;;;15.80;54.50;;;;;;5053564;28;20025;-47
2022/03/11 09:26:31;;;;;;;15.32;8.70;;;15.50;53.90;;;;;;5054894;28;20028;-50
2022/03/11 09:28:56;;;;;;;12.18;8.18;;;14.50;54.80;;;;;;5053586;28;20112;-50
2022/03/11 09:31:22;;;;;;;14.55;7.65;;;14.40;56.40;;;;;;5053291;28;20116;-49
2022/03/11 09:33:48;;;;;;;11.85;7.30;;;14.20;55.90;;;;;;5053161;28;20025;-48
2022/03/11 09:36:14;;;;;;;19.52;8.63;;;15.90;56.50;;;;;;5053472;28;20033;-46
2022/03/11 09:38:39;;;;;;;15.32;7.95;;;16.60;54.20;;;;;;5054187;28;20476;-47
2022/03/11 09:41:07;;;;;;;16.23;7.90;;;16.80;52.30;;;;;;5052746;28;20025;-51
2022/03/11 09:43:32;;;;;;;14.43;7.72;;;15.60;52.60;;;;;;5054270;28;20031;-49
2022/03/11 09:45:59;;;;;;;15.73;7.20;;;15.10;54.40;;;;;;5054233;28;20098;-50
2022/03/11 09:48:25;;;;;;;14.35;7.57;;;15.90;54.80;;;;;;5052657;28;20072;-48
2022/03/11 09:50:51;;;;;;;12.55;7.68;;;16.30;52.80;;;;;;5043851;28;20072;-47
2022/03/11 09:53:22;;;;;;;11.95;7.22;;;16.80;51.60;;;;;;5044409;28;20196;-52
2022/03/11 09:55:48;;;;;;;13.30;7.80;;;15.40;52.80;;;;;;5044703;28;20040;-50
2022/03/11 09:58:14;;;;;;;13.95;8.15;;;14.40;53.30;;;;;;5043851;28;20029;-52
2022/03/11 10:00:40;;;;;;;14.20;7.28;;;13.40;55.70;;;;;;5036765;28;20107;-49
2022/03/11 10:03:06;;;;;;;16.70;7.43;;;13.30;56.70;;;;;;5032402;28;20053;-51
2022/03/11 10:08:54;;;;;;;12.07;6.95;;;14.10;55.80;;;;;;5033913;28;20029;-49
2022/03/11 10:11:25;;;;;;;15.88;7.85;;;13.70;55.70;;;;;;5032747;28;20026;-49
2022/03/11 10:14:03;;;;;;;13.48;6.75;;;13.60;56.70;;;;;;5032632;28;20116;-48
2022/03/11 10:16:30;;;;;;;13.45;7.03;;;13.20;56.80;;;;;;5033204;28;20037;-52
2022/03/11 10:19:01;;;;;;;14.32;7.43;;;13.10;57.50;;;;;;5033815;28;20484;-48
2022/03/11 10:21:36;;;;;;;12.73;7.50;;;12.60;57.20;;;;;;5032509;28;20465;-50
2022/03/11 10:24:05;;;;;;;16.30;7.30;;;12.20;57.60;;;;;;5032111;28;20495;-48
2022/03/11 10:26:42;;;;;;;14.75;7.32;;;11.70;59.10;;;;;;5032426;28;20108;-50
2022/03/11 10:29:11;;;;;;;10.80;6.68;;;11.60;59.00;;;;;;5033235;28;20101;-46
2022/03/11 10:31:48;;;;;;;16.33;7.28;;;11.10;59.90;;;;;;5032055;28;20075;-48
2022/03/11 10:34:31;;;;;;;16.90;6.50;;;11.10;61.30;;;;;;5032985;28;20030;-48
2022/03/11 10:37:00;;;;;;;13.02;6.32;;;10.80;60.80;;;;;;5033371;28;20079;-53
2022/03/11 10:39:39;;;;;;;14.18;7.22;;;10.80;61.90;;;;;;5033273;28;20029;-50
2022/03/11 10:42:24;;;;;;;11.48;6.38;;;11.10;61.70;;;;;;5033169;28;20503;-48
2022/03/11 10:45:02;;;;;;;13.65;6.20;;;10.90;61.50;;;;;;5033271;28;20028;-48
2022/03/11 10:47:33;;;;;;;12.88;5.50;;;10.50;60.70;;;;;;5033195;28;20025;-54
2022/03/11 10:50:01;;;;;;;14.32;6.45;;;10.20;61.60;;;;;;5033294;28;20029;-49
2022/03/11 10:52:34;;;;;;;14.52;6.30;;;10.50;62.40;;;;;;5033095;28;20029;-49
2022/03/11 10:55:16;;;;;;;14.02;6.43;;;10.30;61.50;;;;;;5032755;28;20026;-47
2022/03/11 10:57:42;;;;;;;14.15;5.78;;;10.30;62.90;;;;;;5033205;28;20032;-47
2022/03/11 11:00:17;;;;;;;15.68;6.45;;;10.20;63.30;;;;;;5031866;28;20026;-49
2022/03/11 11:02:44;;;;;;;14.27;6.90;;;10.20;62.20;;;;;;5032061;28;20026;-47
2022/03/11 11:05:12;;;;;;;16.33;6.10;;;10.40;63.30;;;;;;5031732;28;20116;-47
2022/03/11 11:07:41;;;;;;;16.40;7.07;;;10.70;63.20;;;;;;5032057;28;20022;-51
2022/03/11 11:10:08;;;;;;;11.00;6.22;;;10.50;63.00;;;;;;5032941;28;20040;-50
2022/03/11 11:12:34;;;;;;;12.35;6.43;;;9.90;61.60;;;;;;5033236;28;20116;-48
2022/03/11 11:14:59;;;;;;;12.25;6.85;;;9.40;63.70;;;;;;5032976;28;20056;-50
2022/03/11 11:17:27;;;;;;;10.70;5.68;;;9.30;64.90;;;;;;5032867;28;20029;-49
2022/03/11 11:19:56;;;;;;;14.43;6.03;;;9.60;65.60;;;;;;5033134;28;20125;-53
2022/03/11 11:22:25;;;;;;;13.00;6.15;;;9.90;65.30;;;;;;5032308;28;20065;-55
2022/03/11 11:24:53;;;;;;;19.45;7.20;;;9.90;63.30;;;;;;5032957;28;20057;-48
2022/03/11 11:27:20;;;;;;;12.25;6.85;;;9.80;64.00;;;;;;5032757;28;20020;-49
2022/03/11 11:29:49;;;;;;;13.05;6.53;;;9.70;65.20;;;;;;5031637;28;20040;-48
2022/03/11 11:32:19;;;;;;;18.80;6.43;;;10.00;65.40;;;;;;5031824;28;20029;-51
2022/03/11 11:34:45;;;;;;;10.88;5.55;;;9.90;64.30;;;;;;5032828;28;20061;-48
2022/03/11 11:37:39;;;;;;;17.08;7.38;;;9.80;64.40;;;;;;5031358;28;20053;-47
2022/03/11 11:40:22;;;;;;;13.45;6.53;;;9.50;64.10;;;;;;5031572;28;20026;-47
2022/03/11 11:43:26;;;;;;;14.30;6.00;;;9.50;65.90;;;;;;5036278;28;20040;-53
2022/03/11 11:46:09;;;;;;;15.52;6.03;;;9.70;66.00;;;;;;5035046;28;20021;-49
2022/03/11 11:48:35;;;;;;;16.10;7.00;;;10.20;65.50;;;;;;5036258;28;20013;-47
2022/03/11 11:51:05;;;;;;;13.60;7.25;;;10.50;65.40;;;;;;5036252;28;20017;-50
2022/03/11 11:53:51;;;;;;;13.05;6.30;;;10.30;64.50;;;;;;5035147;28;20029;-49
2022/03/11 11:56:55;;;;;;;13.63;5.28;;;10.20;64.10;;;;;;5035694;28;20029;-51
2022/03/11 11:59:38;;;;;;;14.85;6.80;;;10.60;67.00;;;;;;5029078;28;20117;-46
2022/03/11 12:02:24;;;;;;;16.55;6.65;;;10.70;63.80;;;;;;5036062;28;20033;-52
2022/03/11 12:04:50;;;;;;;11.27;5.60;;;10.50;63.60;;;;;;5034834;28;20029;-49
2022/03/11 12:07:17;;;;;;;12.30;6.00;;;10.30;63.80;;;;;;5034424;28;20025;-50
2022/03/11 12:09:58;;;;;;;15.43;6.13;;;10.40;65.80;;;;;;5034608;28;20117;-50
2022/03/11 12:12:24;;;;;;;11.95;6.50;;;10.50;63.80;;;;;;5036147;28;20028;-48
2022/03/11 12:15:05;;;;;;;13.27;6.25;;;10.40;63.70;;;;;;5034466;28;20025;-50
2022/03/11 12:18:04;;;;;;;12.25;5.95;;;10.50;65.20;;;;;;5035337;28;20375;-51
2022/03/11 12:20:35;;;;;;;13.00;6.57;;;10.30;63.40;;;;;;5023763;28;20046;-52
2022/03/11 12:23:07;;;;;;;;;;;10.10;63.80;;;;;;5034596;28;20044;-51
2022/03/11 12:25:33;;;;;;;11.48;6.00;;;9.90;65.00;;;;;;5035130;28;19905;-46
2022/03/11 12:28:16;;;;;;;13.80;5.90;;;9.80;65.20;;;;;;5034272;28;20026;-46
2022/03/11 12:30:48;;;;;;;12.73;5.93;;;9.80;64.60;;;;;;5036023;28;20068;-49
2022/03/11 12:33:15;;;;;;;13.77;6.10;;;9.90;64.80;;;;;;5034648;28;20080;-48
2022/03/11 12:35:43;;;;;;;13.15;6.25;;;10.00;63.70;;;;;;5035522;28;20430;-46
2022/03/11 12:38:20;;;;;;;15.07;6.50;;;10.00;63.90;;;;;;5034315;28;20049;-47
2022/03/11 12:40:47;;;;;;;13.05;5.85;;;10.00;64.70;;;;;;5035446;28;20025;-46
2022/03/11 12:43:15;;;;;;;13.93;6.28;;;9.90;64.50;;;;;;5033990;28;20025;-47